Time;durP1;ratioP1;P1;durP2;ratioP2;P2;SDS_P1;SDS_P2;PMS_P1;PMS_P2;Temp;Humidity;BMP_temperature;BMP_pressure;BME280_temperature;BME280_humidity;BME280_pressure;Samples;Min_cycle;Max_cycle;Signal;HPM_P1;HPM_P2
2022/09/27 00:00:17;;;;;;;1.42;1.33;;;11.10;99.90;;;;;;5014265;28;20081;-49
2022/09/27 00:02:43;;;;;;;0.80;0.80;;;11.10;99.90;;;;;;5014183;28;20022;-43
2022/09/27 00:05:08;;;;;;;2.05;1.10;;;11.10;99.90;;;;;;5013801;28;20110;-45
2022/09/27 00:07:34;;;;;;;0.70;0.70;;;11.10;99.90;;;;;;5014054;28;20108;-45
2022/09/27 00:09:59;;;;;;;2.38;1.10;;;11.10;99.90;;;;;;5014008;28;20026;-44
2022/09/27 00:12:25;;;;;;;0.90;0.90;;;11.10;99.90;;;;;;5013751;28;20026;-41
2022/09/27 00:14:50;;;;;;;5.25;1.85;;;11.10;99.90;;;;;;5013632;28;20390;-46
2022/09/27 00:17:15;;;;;;;0.93;0.90;;;11.10;99.90;;;;;;5012764;28;20030;-45
2022/09/27 00:19:41;;;;;;;0.90;0.90;;;11.10;99.90;;;;;;5013810;28;20030;-43
2022/09/27 00:22:06;;;;;;;0.90;0.90;;;11.10;99.90;;;;;;5013533;28;20026;-46
2022/09/27 00:24:32;;;;;;;1.00;1.00;;;11.10;99.90;;;;;;5013704;28;20050;-44
2022/09/27 00:26:58;;;;;;;2.25;0.80;;;11.10;99.90;;;;;;5012199;28;20117;-44
2022/09/27 00:29:24;;;;;;;1.85;0.90;;;11.10;99.90;;;;;;5013657;28;20153;-44
2022/09/27 00:31:49;;;;;;;0.75;0.75;;;11.10;99.90;;;;;;5013665;28;20165;-44
2022/09/27 00:34:19;;;;;;;0.70;0.70;;;11.10;99.90;;;;;;5013355;28;20030;-46
2022/09/27 00:36:44;;;;;;;0.60;0.60;;;11.10;99.90;;;;;;5013539;28;20032;-40
2022/09/27 00:39:10;;;;;;;1.90;0.77;;;11.20;99.90;;;;;;5013230;28;20101;-43
2022/09/27 00:41:36;;;;;;;0.70;0.70;;;11.10;99.90;;;;;;5013540;28;20102;-47
2022/09/27 00:44:03;;;;;;;2.50;0.95;;;11.10;99.90;;;;;;5013518;28;20072;-46
2022/09/27 00:46:43;;;;;;;1.02;1.02;;;11.10;99.90;;;;;;5013454;28;20048;-48
2022/09/27 00:49:46;;;;;;;1.17;0.90;;;11.10;99.90;;;;;;5014442;28;20025;-46
2022/09/27 00:52:25;;;;;;;6.78;4.90;;;11.10;99.90;;;;;;4971966;28;20065;-45
2022/09/27 00:54:57;;;;;;;1.50;1.40;;;11.00;99.90;;;;;;5012940;28;20033;-43
2022/09/27 00:57:23;;;;;;;2.45;0.80;;;11.00;99.90;;;;;;5013243;28;20037;-44
2022/09/27 00:59:53;;;;;;;0.85;0.85;;;11.00;99.90;;;;;;5013169;28;20029;-49
2022/09/27 01:02:19;;;;;;;0.70;0.70;;;11.00;99.90;;;;;;5012285;28;20034;-47
2022/09/27 01:04:46;;;;;;;1.08;1.08;;;11.00;99.90;;;;;;5013411;28;20420;-45
2022/09/27 01:07:12;;;;;;;1.73;0.85;;;11.00;99.90;;;;;;5013157;28;20125;-44
2022/09/27 01:09:37;;;;;;;1.65;0.70;;;11.00;99.90;;;;;;5013368;28;20096;-44
2022/09/27 01:12:20;;;;;;;0.75;0.75;;;11.00;99.90;;;;;;5012906;28;20061;-47
2022/09/27 01:14:54;;;;;;;0.75;0.75;;;11.00;99.90;;;;;;5012728;28;20029;-44
2022/09/27 01:17:32;;;;;;;5.20;1.23;;;10.90;99.90;;;;;;5012953;28;20030;-44
2022/09/27 01:20:25;;;;;;;0.68;0.68;;;10.90;99.90;;;;;;5012799;28;20268;-47
2022/09/27 01:23:02;;;;;;;0.88;0.70;;;11.00;99.90;;;;;;5012688;28;20022;-44
2022/09/27 01:25:41;;;;;;;0.70;0.70;;;10.90;99.90;;;;;;5012805;28;20033;-44
2022/09/27 01:28:20;;;;;;;1.13;1.13;;;11.00;99.90;;;;;;5012658;28;20362;-47
2022/09/27 01:31:09;;;;;;;0.95;0.85;;;10.90;99.90;;;;;;5013056;28;20107;-44
2022/09/27 01:34:06;;;;;;;0.70;0.70;;;11.00;99.90;;;;;;5012604;28;20028;-49
2022/09/27 01:37:00;;;;;;;1.23;1.08;;;11.00;99.90;;;;;;5012621;28;20128;-44
2022/09/27 01:39:47;;;;;;;1.10;0.95;;;11.00;99.90;;;;;;5012539;28;20116;-45
2022/09/27 01:42:25;;;;;;;4.40;1.55;;;11.00;99.90;;;;;;5012252;28;20087;-46
2022/09/27 01:44:57;;;;;;;4.22;1.75;;;11.00;99.90;;;;;;5012310;28;20018;-46
2022/09/27 01:47:40;;;;;;;6.10;2.35;;;11.00;99.90;;;;;;5012382;28;20061;-44
2022/09/27 01:50:15;;;;;;;2.88;1.20;;;11.10;99.90;;;;;;5012326;28;20385;-44
2022/09/27 01:52:55;;;;;;;1.40;1.00;;;11.00;99.90;;;;;;5012143;28;20026;-43
2022/09/27 01:55:25;;;;;;;3.63;1.10;;;11.00;99.90;;;;;;5010524;28;20493;-44
2022/09/27 01:57:58;;;;;;;1.17;1.08;;;11.10;99.90;;;;;;5012310;28;20029;-44
2022/09/27 02:00:24;;;;;;;2.85;1.10;;;11.00;99.90;;;;;;5010896;28;20076;-45
2022/09/27 02:03:13;;;;;;;7.72;1.65;;;11.00;99.90;;;;;;5011884;28;20537;-48
2022/09/27 02:05:52;;;;;;;5.90;1.17;;;11.00;99.90;;;;;;5011874;28;20026;-47
2022/09/27 02:08:41;;;;;;;2.78;1.30;;;11.00;99.90;;;;;;5011940;28;20109;-44
2022/09/27 02:11:10;;;;;;;7.68;1.58;;;11.00;99.90;;;;;;5012068;28;20386;-47
2022/09/27 02:13:47;;;;;;;7.78;1.40;;;11.00;99.90;;;;;;5010926;28;20041;-47
2022/09/27 02:16:29;;;;;;;5.93;1.77;;;11.10;99.90;;;;;;5012041;28;20053;-47
2022/09/27 02:19:31;;;;;;;5.70;2.53;;;11.10;99.90;;;;;;5011822;28;20029;-43
2022/09/27 02:22:08;;;;;;;2.63;1.42;;;11.10;99.90;;;;;;5011440;28;20101;-44
2022/09/27 02:24:44;;;;;;;3.63;1.65;;;11.10;99.90;;;;;;5011956;28;20132;-43
2022/09/27 02:27:19;;;;;;;5.22;1.58;;;11.10;99.90;;;;;;5011810;28;20034;-47
2022/09/27 02:29:57;;;;;;;8.48;1.55;;;11.10;99.90;;;;;;5011945;28;20026;-49
2022/09/27 02:32:22;;;;;;;3.92;1.42;;;11.00;99.90;;;;;;5012852;28;20054;-44
2022/09/27 02:34:50;;;;;;;6.88;1.88;;;11.00;99.90;;;;;;5013502;28;20037;-42
2022/09/27 02:37:15;;;;;;;3.85;1.65;;;11.00;99.90;;;;;;5012105;28;20026;-46
2022/09/27 02:39:42;;;;;;;4.60;1.58;;;11.00;99.90;;;;;;5011508;28;20030;-44
2022/09/27 02:42:08;;;;;;;5.03;1.60;;;11.10;99.90;;;;;;5011316;28;20033;-46
2022/09/27 02:44:33;;;;;;;4.10;1.38;;;11.10;99.90;;;;;;5011658;28;20117;-50
2022/09/27 02:47:18;;;;;;;5.10;1.60;;;11.10;99.90;;;;;;5011491;28;20120;-46
2022/09/27 02:50:07;;;;;;;4.70;1.63;;;11.10;99.90;;;;;;5011552;28;20482;-49
2022/09/27 02:53:07;;;;;;;6.35;1.77;;;11.00;99.90;;;;;;5011223;28;20460;-44
2022/09/27 02:56:06;;;;;;;2.53;1.20;;;11.00;99.90;;;;;;5011217;28;20040;-44
2022/09/27 02:58:40;;;;;;;4.97;1.95;;;10.90;99.90;;;;;;5011512;28;20038;-46
2022/09/27 03:01:24;;;;;;;2.45;1.20;;;10.90;99.90;;;;;;5011866;28;20539;-43
2022/09/27 03:04:28;;;;;;;4.72;1.27;;;11.00;99.90;;;;;;5011133;28;20034;-46
2022/09/27 03:06:55;;;;;;;1.90;0.88;;;11.00;99.90;;;;;;5011455;28;20037;-44
2022/09/27 03:09:27;;;;;;;4.43;1.20;;;11.00;99.90;;;;;;5009984;28;20049;-44
2022/09/27 03:11:53;;;;;;;2.60;1.10;;;11.00;99.90;;;;;;5011308;28;20101;-42
2022/09/27 03:14:19;;;;;;;4.15;1.05;;;10.90;99.90;;;;;;5011361;28;20213;-45
2022/09/27 03:16:44;;;;;;;2.42;1.00;;;11.00;99.90;;;;;;5011432;28;20034;-48
2022/09/27 03:19:10;;;;;;;2.13;0.90;;;11.00;99.90;;;;;;5011259;28;20034;-45
2022/09/27 03:21:36;;;;;;;0.95;0.88;;;11.00;99.90;;;;;;5011194;28;20429;-46
2022/09/27 03:24:02;;;;;;;3.47;1.08;;;11.00;99.90;;;;;;5010832;28;20033;-43
2022/09/27 03:26:27;;;;;;;2.65;0.82;;;11.00;99.90;;;;;;5014172;28;20084;-46
2022/09/27 03:28:53;;;;;;;2.92;0.90;;;11.00;99.90;;;;;;5015128;28;20050;-48
2022/09/27 03:31:18;;;;;;;2.05;1.17;;;10.90;99.90;;;;;;5015271;28;20054;-45
2022/09/27 03:33:44;;;;;;;1.35;0.90;;;10.90;99.90;;;;;;5013263;28;20105;-45
2022/09/27 03:36:10;;;;;;;1.60;1.10;;;10.90;99.90;;;;;;5015183;28;20042;-44
2022/09/27 03:38:36;;;;;;;2.13;0.95;;;10.90;99.90;;;;;;5014816;28;20056;-45
2022/09/27 03:41:02;;;;;;;3.33;0.93;;;10.90;99.90;;;;;;5015078;28;20386;-46
2022/09/27 03:43:27;;;;;;;1.77;0.75;;;10.90;99.90;;;;;;5014355;28;20038;-46
2022/09/27 03:45:53;;;;;;;2.33;0.80;;;10.80;99.90;;;;;;5014556;28;20037;-45
2022/09/27 03:48:18;;;;;;;2.33;0.80;;;10.80;99.90;;;;;;5014266;28;20496;-49
2022/09/27 03:50:44;;;;;;;1.75;0.68;;;10.80;99.90;;;;;;5014526;28;20212;-46
2022/09/27 03:53:09;;;;;;;3.08;0.80;;;10.80;99.90;;;;;;5014171;28;20053;-42
2022/09/27 03:55:35;;;;;;;0.82;0.60;;;10.80;99.90;;;;;;5014293;28;20474;-48
2022/09/27 03:58:01;;;;;;;0.82;0.52;;;10.80;99.90;;;;;;5014938;28;20026;-44
2022/09/27 04:00:27;;;;;;;2.50;0.60;;;10.70;99.90;;;;;;5014566;28;20109;-44
2022/09/27 04:02:52;;;;;;;1.17;0.50;;;10.60;99.90;;;;;;5014145;28;20505;-47
2022/09/27 04:05:18;;;;;;;0.60;0.55;;;10.50;99.90;;;;;;5014343;28;20026;-50
2022/09/27 04:07:48;;;;;;;1.10;0.50;;;10.50;99.90;;;;;;5014105;28;20022;-45
2022/09/27 04:10:14;;;;;;;2.00;0.50;;;10.40;99.90;;;;;;5014150;28;20032;-48
2022/09/27 04:12:40;;;;;;;2.05;0.30;;;10.50;99.90;;;;;;5013844;28;20413;-44
2022/09/27 04:15:07;;;;;;;1.63;0.43;;;10.40;99.90;;;;;;5014122;28;20032;-46
2022/09/27 04:17:33;;;;;;;1.40;0.40;;;10.40;99.90;;;;;;5014062;28;20113;-49
2022/09/27 04:19:58;;;;;;;0.50;0.30;;;10.30;99.90;;;;;;5013803;28;20100;-48
2022/09/27 04:22:24;;;;;;;0.57;0.50;;;10.30;99.90;;;;;;5013672;28;20479;-46
2022/09/27 04:24:49;;;;;;;1.95;0.60;;;10.30;99.90;;;;;;5013758;28;20441;-47
2022/09/27 04:27:15;;;;;;;0.45;0.45;;;10.30;99.90;;;;;;5013442;28;20026;-45
2022/09/27 04:29:44;;;;;;;1.52;0.70;;;10.40;99.90;;;;;;5013842;28;20505;-44
2022/09/27 04:32:10;;;;;;;0.63;0.40;;;10.40;99.90;;;;;;5013545;28;20540;-45
2022/09/27 04:37:19;;;;;;;1.63;1.00;;;10.40;99.90;;;;;;5013196;28;20505;-44
2022/09/27 04:39:45;;;;;;;0.60;0.40;;;10.40;99.90;;;;;;5013609;28;20033;-45
2022/09/27 04:42:10;;;;;;;4.68;0.40;;;10.40;99.90;;;;;;5012095;28;20899;-45
2022/09/27 04:44:36;;;;;;;2.08;1.33;;;10.30;99.90;;;;;;5013974;28;20037;-50
2022/09/27 04:47:01;;;;;;;3.03;0.52;;;10.40;99.90;;;;;;5013355;28;20113;-45
2022/09/27 04:49:27;;;;;;;0.85;0.77;;;10.30;99.90;;;;;;5013352;28;20018;-43
2022/09/27 04:51:52;;;;;;;1.85;0.55;;;10.30;99.90;;;;;;5013350;28;20033;-46
2022/09/27 04:54:18;;;;;;;0.57;0.57;;;10.30;99.90;;;;;;5011907;28;20515;-47
2022/09/27 04:56:43;;;;;;;0.60;0.60;;;10.30;99.90;;;;;;5012706;28;20040;-44
2022/09/27 04:59:09;;;;;;;0.60;0.60;;;10.20;99.90;;;;;;5013042;28;20034;-46
2022/09/27 05:01:34;;;;;;;1.33;0.50;;;10.20;99.90;;;;;;5013048;28;20409;-46
2022/09/27 05:04:00;;;;;;;1.00;0.95;;;10.30;99.90;;;;;;5012838;28;20026;-45
2022/09/27 05:06:25;;;;;;;1.95;0.70;;;10.20;99.90;;;;;;5013079;28;20038;-44
2022/09/27 05:08:51;;;;;;;0.52;0.52;;;10.30;99.90;;;;;;5013141;28;20532;-44
2022/09/27 05:11:16;;;;;;;1.10;0.70;;;10.30;99.90;;;;;;5013367;28;20034;-46
2022/09/27 05:13:42;;;;;;;1.13;0.98;;;10.30;99.90;;;;;;5012729;28;20218;-44
2022/09/27 05:16:08;;;;;;;0.70;0.70;;;10.30;99.90;;;;;;5013195;28;20080;-44
2022/09/27 05:18:33;;;;;;;1.17;0.73;;;10.30;99.90;;;;;;5012998;28;20073;-49
2022/09/27 05:20:59;;;;;;;1.27;0.60;;;10.30;99.90;;;;;;5012893;28;20026;-44
2022/09/27 05:23:25;;;;;;;1.77;0.65;;;10.30;99.90;;;;;;5012485;28;20061;-46
2022/09/27 05:25:55;;;;;;;0.80;0.57;;;10.40;99.90;;;;;;5012626;28;20026;-44
2022/09/27 05:28:21;;;;;;;1.08;0.60;;;10.30;99.90;;;;;;5012701;28;20030;-44
2022/09/27 05:30:46;;;;;;;0.95;0.70;;;10.30;99.90;;;;;;5011578;28;20022;-46
2022/09/27 05:33:12;;;;;;;0.85;0.55;;;10.30;99.90;;;;;;5012440;28;20029;-46
2022/09/27 05:35:41;;;;;;;1.08;0.65;;;10.30;99.90;;;;;;5012460;28;20044;-44
2022/09/27 05:38:06;;;;;;;3.67;0.80;;;10.30;99.90;;;;;;5012599;28;20444;-44
2022/09/27 05:40:32;;;;;;;1.10;0.50;;;10.30;99.90;;;;;;5012416;28;20204;-47
2022/09/27 05:42:58;;;;;;;1.20;0.63;;;10.30;99.90;;;;;;5010775;28;20030;-44
2022/09/27 05:45:24;;;;;;;0.60;0.60;;;10.30;99.90;;;;;;5012317;28;20022;-44
2022/09/27 05:47:54;;;;;;;1.75;1.00;;;10.30;99.90;;;;;;5012261;28;20398;-45
2022/09/27 05:50:19;;;;;;;0.95;0.52;;;10.30;99.90;;;;;;5010167;28;20324;-42
2022/09/27 05:52:45;;;;;;;2.88;0.60;;;10.40;99.90;;;;;;5011803;28;20029;-44
2022/09/27 05:55:10;;;;;;;0.40;0.40;;;10.40;99.90;;;;;;5011765;28;20485;-44
2022/09/27 05:57:36;;;;;;;4.45;0.80;;;10.40;99.90;;;;;;5012247;28;20034;-44
2022/09/27 06:00:01;;;;;;;2.75;0.50;;;10.40;99.90;;;;;;5012061;28;20426;-46
2022/09/27 06:02:27;;;;;;;1.48;0.50;;;10.40;99.90;;;;;;5011872;28;20022;-45
2022/09/27 06:04:53;;;;;;;0.90;0.70;;;10.30;99.90;;;;;;5011917;28;20030;-46
2022/09/27 06:07:19;;;;;;;1.38;0.70;;;10.40;99.90;;;;;;5011926;28;20028;-46
2022/09/27 06:09:45;;;;;;;0.57;0.55;;;10.40;99.90;;;;;;5012029;28;20018;-45
2022/09/27 06:12:10;;;;;;;0.50;0.50;;;10.50;99.90;;;;;;5011650;28;20430;-44
2022/09/27 06:14:37;;;;;;;2.92;0.63;;;10.50;99.90;;;;;;5011941;28;20104;-46
2022/09/27 06:17:03;;;;;;;0.68;0.60;;;10.50;99.90;;;;;;5011828;28;20107;-48
2022/09/27 06:19:28;;;;;;;1.45;0.60;;;10.60;99.90;;;;;;5010601;28;20061;-45
2022/09/27 06:21:54;;;;;;;0.80;0.80;;;10.60;99.90;;;;;;5010578;28;20438;-47
2022/09/27 06:24:20;;;;;;;0.52;0.52;;;10.60;99.90;;;;;;5011700;28;20033;-47
2022/09/27 06:26:45;;;;;;;3.17;0.50;;;10.70;99.90;;;;;;5011507;28;20033;-43
2022/09/27 06:29:11;;;;;;;1.17;0.55;;;10.60;99.90;;;;;;5011347;28;20425;-44
2022/09/27 06:31:36;;;;;;;0.50;0.50;;;10.60;99.90;;;;;;5011521;28;20132;-45
2022/09/27 06:34:02;;;;;;;1.33;0.60;;;10.60;99.90;;;;;;5009681;28;20440;-46
2022/09/27 06:36:27;;;;;;;0.80;0.60;;;10.60;99.90;;;;;;5011500;28;20088;-44
2022/09/27 06:38:53;;;;;;;0.50;0.50;;;10.60;99.90;;;;;;5011316;28;20038;-45
2022/09/27 06:41:18;;;;;;;0.70;0.70;;;10.60;99.90;;;;;;5011407;28;20113;-45
2022/09/27 06:43:44;;;;;;;0.40;0.40;;;10.70;99.90;;;;;;5011310;28;20462;-45
2022/09/27 06:46:10;;;;;;;1.10;0.40;;;10.70;99.90;;;;;;5011327;28;20034;-49
2022/09/27 06:48:37;;;;;;;0.40;0.40;;;10.80;99.90;;;;;;5032547;23;20064;-47
2022/09/27 06:51:03;;;;;;;2.35;0.30;;;10.80;99.90;;;;;;5031190;28;20018;-47
2022/09/27 06:53:28;;;;;;;1.50;0.50;;;10.80;99.90;;;;;;5029124;28;20021;-48
2022/09/27 06:56:00;;;;;;;0.95;0.60;;;10.80;99.90;;;;;;5030619;28;20022;-46
2022/09/27 07:01:12;;;;;;;1.38;0.43;;;10.80;99.90;;;;;;5053920;28;20121;-47
2022/09/27 07:03:40;;;;;;;0.65;0.65;;;10.80;99.90;;;;;;5054786;28;20103;-48
2022/09/27 07:06:09;;;;;;;0.75;0.50;;;10.80;99.90;;;;;;5054964;28;20117;-47
2022/09/27 07:08:35;;;;;;;0.47;0.47;;;10.70;99.90;;;;;;5054887;28;20025;-48
2022/09/27 07:11:03;;;;;;;0.90;0.90;;;10.70;99.90;;;;;;5054922;28;20441;-49
2022/09/27 07:13:31;;;;;;;0.43;0.43;;;10.80;99.90;;;;;;5054606;28;20021;-46
2022/09/27 07:15:57;;;;;;;1.25;0.65;;;10.80;99.90;;;;;;5054705;28;20036;-44
2022/09/27 07:18:22;;;;;;;1.40;0.50;;;10.90;99.90;;;;;;5054696;28;20021;-46
2022/09/27 07:20:49;;;;;;;2.35;0.40;;;10.90;99.90;;;;;;5054872;28;20399;-43
2022/09/27 07:23:15;;;;;;;1.48;0.50;;;11.00;99.90;;;;;;5054313;28;20396;-47
2022/09/27 07:25:41;;;;;;;2.22;0.40;;;11.00;99.90;;;;;;5054372;28;20025;-49
2022/09/27 07:28:11;;;;;;;0.40;0.40;;;11.10;99.90;;;;;;5054354;28;20021;-47
2022/09/27 07:30:37;;;;;;;0.70;0.70;;;11.30;99.90;;;;;;5054439;28;20020;-49
2022/09/27 07:33:04;;;;;;;2.03;0.47;;;11.40;99.90;;;;;;5054384;28;20093;-45
2022/09/27 07:35:29;;;;;;;2.25;0.47;;;11.40;99.90;;;;;;5054472;28;20025;-49
2022/09/27 07:37:56;;;;;;;0.80;0.70;;;11.50;99.90;;;;;;5054679;28;20035;-46
2022/09/27 07:40:22;;;;;;;0.50;0.50;;;11.50;99.90;;;;;;5054291;28;20032;-46
2022/09/27 07:42:53;;;;;;;0.40;0.40;;;11.50;99.90;;;;;;5053953;28;20037;-46
2022/09/27 07:45:18;;;;;;;1.30;0.63;;;11.60;99.90;;;;;;5054016;28;20320;-45
2022/09/27 07:47:44;;;;;;;0.57;0.57;;;11.60;99.90;;;;;;5053853;28;20773;-46
2022/09/27 07:50:09;;;;;;;0.60;0.40;;;11.60;99.90;;;;;;5053810;28;20024;-46
2022/09/27 07:52:43;;;;;;;0.60;0.60;;;11.60;99.90;;;;;;5053920;28;20029;-42
2022/09/27 07:55:09;;;;;;;2.92;0.52;;;11.60;99.90;;;;;;5053612;28;20035;-48
2022/09/27 07:57:37;;;;;;;0.80;0.60;;;11.70;99.90;;;;;;5053879;28;20033;-49
2022/09/27 08:00:08;;;;;;;2.72;0.60;;;11.80;99.90;;;;;;5053950;28;20021;-45
2022/09/27 08:02:34;;;;;;;0.40;0.40;;;11.90;99.90;;;;;;5053704;28;20401;-45
2022/09/27 08:04:59;;;;;;;0.60;0.60;;;11.90;99.90;;;;;;5052470;28;20021;-44
2022/09/27 08:07:25;;;;;;;0.38;0.38;;;11.90;99.90;;;;;;5053554;28;20071;-45
2022/09/27 08:09:51;;;;;;;0.40;0.40;;;11.90;99.90;;;;;;5053992;28;20425;-46
2022/09/27 08:12:17;;;;;;;0.63;0.63;;;11.90;99.90;;;;;;5052400;28;20025;-46
2022/09/27 08:14:42;;;;;;;7.82;1.00;;;11.90;99.90;;;;;;5053635;28;20508;-46
2022/09/27 08:17:11;;;;;;;0.80;0.80;;;12.00;99.90;;;;;;5053686;28;20025;-49
2022/09/27 08:19:37;;;;;;;2.08;0.50;;;12.20;99.90;;;;;;5053699;28;20372;-46
2022/09/27 08:22:03;;;;;;;0.45;0.43;;;12.40;99.90;;;;;;5053182;28;20021;-43
2022/09/27 08:24:28;;;;;;;1.13;0.55;;;12.50;99.90;;;;;;5053436;28;20056;-47
2022/09/27 08:26:54;;;;;;;0.50;0.50;;;12.50;99.90;;;;;;5053586;28;20484;-47
2022/09/27 08:29:19;;;;;;;2.10;0.47;;;12.60;99.90;;;;;;5053364;28;20103;-47
2022/09/27 08:31:45;;;;;;;0.30;0.30;;;12.70;99.90;;;;;;5053333;28;20036;-46
2022/09/27 08:34:10;;;;;;;0.75;0.45;;;12.90;99.90;;;;;;5053260;28;20029;-51
2022/09/27 08:36:36;;;;;;;0.95;0.57;;;12.90;99.90;;;;;;5053430;28;20056;-46
2022/09/27 08:39:03;;;;;;;2.25;1.45;;;12.90;99.90;;;;;;5053300;28;20025;-43
2022/09/27 08:41:33;;;;;;;0.77;0.50;;;12.90;99.90;;;;;;5053336;28;20041;-47
2022/09/27 08:44:07;;;;;;;1.55;0.60;;;12.80;99.90;;;;;;5053392;28;20017;-46
2022/09/27 08:46:58;;;;;;;0.63;0.50;;;12.70;99.90;;;;;;5053077;28;20082;-46
2022/09/27 08:49:37;;;;;;;5.75;1.30;;;12.70;99.90;;;;;;5051868;28;20053;-45
2022/09/27 08:52:06;;;;;;;1.15;0.60;;;12.80;99.90;;;;;;5053086;28;20043;-45
2022/09/27 08:54:34;;;;;;;0.65;0.65;;;12.80;99.90;;;;;;5053139;28;20514;-42
2022/09/27 08:57:04;;;;;;;3.78;0.70;;;12.90;99.90;;;;;;5052282;28;20477;-48
2022/09/27 08:59:41;;;;;;;0.82;0.50;;;13.20;99.90;;;;;;5053023;28;20029;-49
2022/09/27 09:02:17;;;;;;;0.40;0.40;;;13.30;99.90;;;;;;5052656;28;20037;-45
2022/09/27 09:04:45;;;;;;;2.15;0.40;;;13.40;99.90;;;;;;5052967;28;20017;-46
2022/09/27 09:07:25;;;;;;;4.18;0.60;;;13.40;99.90;;;;;;5052541;28;20032;-42
2022/09/27 09:10:12;;;;;;;6.22;0.77;;;14.00;99.90;;;;;;5052906;28;20067;-41
2022/09/27 09:12:52;;;;;;;0.47;0.47;;;14.40;99.90;;;;;;5052339;28;20071;-46
2022/09/27 09:15:53;;;;;;;0.55;0.55;;;14.30;99.90;;;;;;5052667;28;20080;-45
2022/09/27 09:18:49;;;;;;;0.95;0.40;;;14.10;99.90;;;;;;5052458;28;20025;-47
2022/09/27 09:21:53;;;;;;;0.50;0.50;;;13.90;99.90;;;;;;5052431;28;20032;-49
2022/09/27 09:24:38;;;;;;;0.73;0.30;;;13.70;99.90;;;;;;5052112;28;20456;-45
2022/09/27 09:27:28;;;;;;;0.63;0.55;;;13.50;99.90;;;;;;5052369;28;20021;-47
2022/09/27 09:30:20;;;;;;;1.65;0.40;;;13.30;99.90;;;;;;5052303;28;20373;-48
2022/09/27 09:33:10;;;;;;;0.40;0.40;;;13.30;99.90;;;;;;5052067;28;20045;-47
2022/09/27 09:35:47;;;;;;;1.42;0.40;;;13.30;99.90;;;;;;5052227;28;20028;-49
2022/09/27 09:38:36;;;;;;;0.47;0.40;;;13.20;99.90;;;;;;5051939;28;20099;-47
2022/09/27 09:41:04;;;;;;;0.30;0.30;;;13.10;99.90;;;;;;5052244;28;20107;-46
2022/09/27 09:43:36;;;;;;;0.52;0.30;;;13.10;99.90;;;;;;5051690;28;20029;-46
2022/09/27 09:46:13;;;;;;;1.27;0.50;;;13.00;99.90;;;;;;5052111;28;20029;-42
2022/09/27 09:48:55;;;;;;;0.57;0.45;;;13.00;99.90;;;;;;5051852;28;20056;-48
2022/09/27 09:51:27;;;;;;;0.85;0.50;;;13.00;99.90;;;;;;5052088;28;20025;-50
2022/09/27 09:53:58;;;;;;;0.65;0.47;;;13.00;99.90;;;;;;5051679;28;20495;-41
2022/09/27 09:56:29;;;;;;;0.68;0.30;;;13.10;99.90;;;;;;5051489;28;20284;-45
2022/09/27 09:59:01;;;;;;;1.67;0.50;;;13.00;99.90;;;;;;5051640;28;20122;-45
2022/09/27 10:01:42;;;;;;;0.60;0.60;;;13.10;99.90;;;;;;5051811;28;20186;-48
2022/09/27 10:04:28;;;;;;;0.32;0.32;;;13.00;99.90;;;;;;5051921;28;20082;-42
2022/09/27 10:06:56;;;;;;;;;;;12.90;99.90;;;;;;5051768;28;20072;-42
2022/09/27 10:09:24;;;;;;;0.63;0.40;;;12.90;99.90;;;;;;5051461;28;19905;-47
2022/09/27 10:11:50;;;;;;;0.47;0.45;;;12.90;99.90;;;;;;5050111;28;20115;-47
2022/09/27 10:14:18;;;;;;;0.30;0.30;;;13.00;99.90;;;;;;5051421;28;20102;-46
2022/09/27 10:16:53;;;;;;;0.47;0.30;;;13.10;99.90;;;;;;5051590;28;20385;-44
2022/09/27 10:19:38;;;;;;;0.55;0.50;;;13.20;99.90;;;;;;5051468;28;20033;-46
2022/09/27 10:22:27;;;;;;;2.97;0.60;;;13.20;99.90;;;;;;5051401;28;20103;-46
2022/09/27 10:25:05;;;;;;;4.32;2.33;;;13.20;99.90;;;;;;5051565;28;20029;-45
2022/09/27 10:27:41;;;;;;;0.70;0.70;;;13.30;99.90;;;;;;5050872;28;20081;-43
2022/09/27 10:30:22;;;;;;;0.77;0.57;;;13.30;99.90;;;;;;5051269;28;20382;-48
2022/09/27 10:32:52;;;;;;;0.47;0.47;;;13.40;99.90;;;;;;5050972;28;20357;-44
2022/09/27 10:35:20;;;;;;;1.05;0.40;;;13.40;99.90;;;;;;5050367;28;20029;-43
2022/09/27 10:37:46;;;;;;;0.60;0.60;;;13.50;99.90;;;;;;5048829;28;20401;-44
2022/09/27 10:40:28;;;;;;;0.40;0.40;;;13.60;99.90;;;;;;5049257;28;20021;-46
2022/09/27 10:42:54;;;;;;;0.98;0.47;;;13.70;99.90;;;;;;5050626;28;20196;-46
2022/09/27 10:45:31;;;;;;;0.40;0.40;;;13.70;99.90;;;;;;5051074;28;20025;-45
2022/09/27 10:47:59;;;;;;;1.08;0.68;;;13.80;99.90;;;;;;5050920;28;20167;-41
2022/09/27 10:50:27;;;;;;;0.57;0.40;;;13.80;99.90;;;;;;5050855;28;20025;-46
2022/09/27 10:53:02;;;;;;;0.73;0.30;;;13.70;99.90;;;;;;5050738;28;20385;-46
2022/09/27 10:55:31;;;;;;;4.18;0.47;;;13.60;99.90;;;;;;5050497;28;20021;-51
2022/09/27 10:57:57;;;;;;;2.72;0.50;;;13.60;99.90;;;;;;5051150;28;20040;-42
2022/09/27 11:00:31;;;;;;;1.15;0.77;;;13.40;99.90;;;;;;5049515;28;20017;-47
2022/09/27 11:03:00;;;;;;;1.02;0.40;;;13.30;99.90;;;;;;5050652;28;20092;-46
2022/09/27 11:05:26;;;;;;;0.50;0.50;;;13.20;99.90;;;;;;5050748;28;20075;-46
2022/09/27 11:07:56;;;;;;;0.60;0.55;;;13.40;99.90;;;;;;5050943;28;20296;-46
2022/09/27 11:10:27;;;;;;;1.17;0.60;;;13.20;99.90;;;;;;5050962;28;20327;-45
2022/09/27 11:13:15;;;;;;;2.65;0.70;;;13.30;99.90;;;;;;5050602;28;20051;-44
2022/09/27 11:15:49;;;;;;;0.82;0.70;;;13.40;99.90;;;;;;5050744;28;20029;-49
2022/09/27 11:18:47;;;;;;;1.65;0.60;;;13.50;99.90;;;;;;5050667;28;20451;-49
2022/09/27 11:21:31;;;;;;;1.13;0.70;;;13.60;99.90;;;;;;4997991;28;20431;-46
2022/09/27 11:24:11;;;;;;;1.38;1.05;;;13.60;99.90;;;;;;5050426;28;20052;-46
2022/09/27 11:26:56;;;;;;;2.65;0.80;;;13.70;99.90;;;;;;5050581;28;20397;-46
2022/09/27 11:29:45;;;;;;;1.98;0.98;;;13.70;99.90;;;;;;5050544;28;20021;-46
2022/09/27 11:32:54;;;;;;;5.35;0.80;;;13.90;99.90;;;;;;5048691;28;20025;-43
2022/09/27 11:35:41;;;;;;;1.05;0.65;;;14.00;99.90;;;;;;5050448;28;20079;-43
2022/09/27 11:38:14;;;;;;;2.83;1.08;;;14.10;99.90;;;;;;5050469;28;20025;-45
2022/09/27 11:41:10;;;;;;;1.73;0.90;;;14.20;99.90;;;;;;5050771;28;20021;-47
2022/09/27 11:43:41;;;;;;;4.10;1.00;;;14.10;99.90;;;;;;5050245;28;20028;-45
2022/09/27 11:46:22;;;;;;;0.70;0.70;;;14.20;99.90;;;;;;5051410;28;20108;-42
2022/09/27 11:48:59;;;;;;;5.68;1.00;;;14.20;99.90;;;;;;5053957;28;20056;-45
2022/09/27 11:51:59;;;;;;;0.77;0.70;;;14.20;99.90;;;;;;5054221;28;20116;-45
2022/09/27 11:55:04;;;;;;;6.30;0.60;;;14.30;99.90;;;;;;5054099;28;20063;-49
2022/09/27 11:57:40;;;;;;;0.68;0.65;;;14.30;99.90;;;;;;5043149;28;20094;-46
2022/09/27 12:00:14;;;;;;;0.85;0.60;;;14.40;99.90;;;;;;5053909;28;20060;-43
2022/09/27 12:03:00;;;;;;;0.73;0.73;;;14.40;99.90;;;;;;5053743;28;20029;-48
2022/09/27 12:05:53;;;;;;;4.55;0.80;;;14.50;99.90;;;;;;5053942;28;20035;-42
2022/09/27 12:08:49;;;;;;;1.23;0.75;;;14.40;99.90;;;;;;5054084;28;20040;-46
2022/09/27 12:11:39;;;;;;;2.17;0.80;;;14.30;99.90;;;;;;5053786;28;20029;-45
2022/09/27 12:14:45;;;;;;;2.85;0.80;;;14.20;99.90;;;;;;5053528;28;20078;-49
2022/09/27 12:17:20;;;;;;;1.17;0.80;;;13.90;99.90;;;;;;5045455;28;20040;-46
2022/09/27 12:19:50;;;;;;;0.93;0.65;;;13.70;99.90;;;;;;5053372;28;20049;-48
2022/09/27 12:22:23;;;;;;;1.48;0.80;;;13.60;99.90;;;;;;5053445;28;20114;-45
2022/09/27 12:24:49;;;;;;;1.08;0.68;;;13.40;99.90;;;;;;5052268;28;20032;-45
2022/09/27 12:27:36;;;;;;;22.35;12.32;;;13.40;99.90;;;;;;5053397;28;20037;-45
2022/09/27 12:30:03;;;;;;;20.30;13.20;;;13.30;99.90;;;;;;5053408;28;20457;-43
2022/09/27 12:32:56;;;;;;;1.75;1.48;;;13.50;99.90;;;;;;5053342;28;20548;-47
2022/09/27 12:35:26;;;;;;;1.55;0.85;;;13.50;99.90;;;;;;5025131;28;20083;-45
2022/09/27 12:38:01;;;;;;;0.80;0.80;;;13.60;99.90;;;;;;5052028;28;20021;-47
2022/09/27 12:40:37;;;;;;;5.47;1.70;;;13.70;99.90;;;;;;5053100;28;20021;-50
2022/09/27 12:43:22;;;;;;;0.88;0.63;;;13.70;99.90;;;;;;5053020;28;20025;-43
2022/09/27 12:46:25;;;;;;;4.03;1.60;;;13.80;99.90;;;;;;5053216;28;20031;-45
2022/09/27 12:49:11;;;;;;;1.17;0.70;;;13.80;99.90;;;;;;5060547;23;20313;-43
2022/09/27 12:51:45;;;;;;;1.45;0.75;;;13.70;99.90;;;;;;5014077;28;20049;-44
2022/09/27 12:54:43;;;;;;;5.35;0.98;;;13.70;99.90;;;;;;5012141;28;20517;-43
2022/09/27 12:57:26;;;;;;;6.68;1.13;;;13.60;99.90;;;;;;5013165;28;20128;-44
2022/09/27 13:00:17;;;;;;;2.15;0.85;;;13.40;99.90;;;;;;5013327;28;20433;-46
2022/09/27 13:02:52;;;;;;;1.30;0.90;;;13.10;99.90;;;;;;5013386;28;20133;-44
2022/09/27 13:05:36;;;;;;;1.27;0.85;;;12.90;99.90;;;;;;5013613;28;20049;-44
2022/09/27 13:08:17;;;;;;;1.73;0.90;;;12.60;99.90;;;;;;5012281;28;20088;-41
2022/09/27 13:11:18;;;;;;;4.15;0.75;;;12.30;99.90;;;;;;5013666;28;20030;-45
2022/09/27 13:13:43;;;;;;;0.30;0.30;;;12.10;99.90;;;;;;5008882;28;20088;-45
2022/09/27 13:16:09;;;;;;;2.38;0.52;;;12.00;99.90;;;;;;5013021;28;20030;-47
2022/09/27 13:18:35;;;;;;;3.30;0.50;;;11.90;99.90;;;;;;5012968;28;20022;-45
2022/09/27 13:21:08;;;;;;;1.50;0.50;;;11.80;99.90;;;;;;5012839;28;20030;-46